sensor_id;sensor_type;location;lat;lon;timestamp;pressure;altitude;pressure_sealevel;temperature;humidity
57086;BME280;42964;42.910;23.792;2023-04-30T00:01:41;97389.19;;;9.22;83.67
57086;BME280;42964;42.910;23.792;2023-04-30T00:06:40;97332.31;;;8.79;83.89
57086;BME280;42964;42.910;23.792;2023-04-30T00:11:39;97402.16;;;9.22;83.25
57086;BME280;42964;42.910;23.792;2023-04-30T00:16:38;97368.53;;;8.96;83.00
57086;BME280;42964;42.910;23.792;2023-04-30T00:21:37;97318.53;;;8.63;84.08
57086;BME280;42964;42.910;23.792;2023-04-30T00:26:36;97406.47;;;8.92;84.81
57086;BME280;42964;42.910;23.792;2023-04-30T00:31:35;97406.47;;;8.85;86.27
57086;BME280;42964;42.910;23.792;2023-04-30T00:36:34;97409.91;;;8.81;85.71
57086;BME280;42964;42.910;23.792;2023-04-30T00:41:36;97398.72;;;8.71;86.36
57086;BME280;42964;42.910;23.792;2023-04-30T00:46:35;97405.59;;;8.52;87.64
57086;BME280;42964;42.910;23.792;2023-04-30T00:51:34;97409.88;;;8.33;89.31
57086;BME280;42964;42.910;23.792;2023-04-30T00:56:34;97408.97;;;8.19;90.18
57086;BME280;42964;42.910;23.792;2023-04-30T01:01:33;97400.34;;;8.14;89.50
57086;BME280;42964;42.910;23.792;2023-04-30T01:06:32;97405.53;;;8.14;88.40
57086;BME280;42964;42.910;23.792;2023-04-30T01:16:45;97395.16;;;8.04;87.87
57086;BME280;42964;42.910;23.792;2023-04-30T01:21:46;97406.31;;;8.03;87.58
57086;BME280;42964;42.910;23.792;2023-04-30T01:27:12;97402.00;;;7.95;88.40
57086;BME280;42964;42.910;23.792;2023-04-30T01:32:13;97405.38;;;7.80;88.04
57086;BME280;42964;42.910;23.792;2023-04-30T01:37:21;97404.44;;;7.61;88.72
57086;BME280;42964;42.910;23.792;2023-04-30T01:42:40;97406.19;;;7.70;87.71
57086;BME280;42964;42.910;23.792;2023-04-30T01:47:55;97413.94;;;7.70;88.13
57086;BME280;42964;42.910;23.792;2023-04-30T01:53:01;97407.06;;;7.70;87.51
57086;BME280;42964;42.910;23.792;2023-04-30T01:58:06;97403.56;;;7.63;87.73
57086;BME280;42964;42.910;23.792;2023-04-30T02:03:06;97376.81;;;7.46;87.79
57086;BME280;42964;42.910;23.792;2023-04-30T02:08:05;97406.06;;;7.42;89.52
57086;BME280;42964;42.910;23.792;2023-04-30T02:13:04;97396.44;;;7.22;90.51
57086;BME280;42964;42.910;23.792;2023-04-30T02:18:03;97396.41;;;7.18;89.76
57086;BME280;42964;42.910;23.792;2023-04-30T02:23:02;97398.16;;;7.23;88.70
57086;BME280;42964;42.910;23.792;2023-04-30T02:28:01;97393.00;;;7.20;89.03
57086;BME280;42964;42.910;23.792;2023-04-30T02:33:00;97403.28;;;7.16;89.67
57086;BME280;42964;42.910;23.792;2023-04-30T02:38:01;97405.78;;;7.03;90.01
57086;BME280;42964;42.910;23.792;2023-04-30T02:43:00;97385.88;;;6.89;89.22
57086;BME280;42964;42.910;23.792;2023-04-30T02:47:59;97409.16;;;6.96;89.57
57086;BME280;42964;42.910;23.792;2023-04-30T02:52:58;97414.34;;;6.99;88.66
57086;BME280;42964;42.910;23.792;2023-04-30T02:57:57;97410.00;;;6.94;88.87
57086;BME280;42964;42.910;23.792;2023-04-30T03:02:56;97409.97;;;6.91;89.04
57086;BME280;42964;42.910;23.792;2023-04-30T03:07:55;97415.91;;;6.80;88.80
57086;BME280;42964;42.910;23.792;2023-04-30T03:12:54;97430.53;;;6.81;88.75
57086;BME280;42964;42.910;23.792;2023-04-30T03:17:53;97433.91;;;6.74;89.71
57086;BME280;42964;42.910;23.792;2023-04-30T03:22:52;97435.53;;;6.65;90.31
57086;BME280;42964;42.910;23.792;2023-04-30T03:27:51;97423.41;;;6.56;90.31
57086;BME280;42964;42.910;23.792;2023-04-30T03:32:50;97438.03;;;6.58;89.99
57086;BME280;42964;42.910;23.792;2023-04-30T03:37:49;97437.25;;;6.64;89.52
57086;BME280;42964;42.910;23.792;2023-04-30T03:42:48;97439.03;;;6.68;88.83
57086;BME280;42964;42.910;23.792;2023-04-30T03:47:47;97445.06;;;6.73;88.70
57086;BME280;42964;42.910;23.792;2023-04-30T03:52:46;97442.53;;;6.78;88.69
57086;BME280;42964;42.910;23.792;2023-04-30T03:57:45;97426.16;;;6.73;88.72
57086;BME280;42964;42.910;23.792;2023-04-30T04:02:44;97454.63;;;6.85;89.00
57086;BME280;42964;42.910;23.792;2023-04-30T04:07:43;97454.72;;;6.96;89.27
57086;BME280;42964;42.910;23.792;2023-04-30T04:12:42;97455.72;;;7.12;88.64
57086;BME280;42964;42.910;23.792;2023-04-30T04:17:41;97456.69;;;7.24;88.78
57086;BME280;42964;42.910;23.792;2023-04-30T04:22:40;97459.41;;;7.41;88.33
57086;BME280;42964;42.910;23.792;2023-04-30T04:27:39;97458.66;;;7.59;88.39
57086;BME280;42964;42.910;23.792;2023-04-30T04:32:38;97464.78;;;7.74;88.49
57086;BME280;42964;42.910;23.792;2023-04-30T04:37:44;97433.78;;;7.80;87.82
57086;BME280;42964;42.910;23.792;2023-04-30T04:42:43;97453.72;;;8.02;87.60
57086;BME280;42964;42.910;23.792;2023-04-30T04:47:42;97437.34;;;8.05;87.42
57086;BME280;42964;42.910;23.792;2023-04-30T04:52:41;97456.34;;;8.22;87.34
57086;BME280;42964;42.910;23.792;2023-04-30T04:57:40;97466.75;;;8.35;87.41
57086;BME280;42964;42.910;23.792;2023-04-30T05:02:40;97473.72;;;8.63;86.42
57086;BME280;42964;42.910;23.792;2023-04-30T05:07:39;97461.69;;;8.75;86.45
57086;BME280;42964;42.910;23.792;2023-04-30T05:12:38;97467.75;;;8.90;86.24
57086;BME280;42964;42.910;23.792;2023-04-30T05:17:37;97464.28;;;9.27;86.46
57086;BME280;42964;42.910;23.792;2023-04-30T05:22:36;97465.13;;;9.70;85.12
57086;BME280;42964;42.910;23.792;2023-04-30T05:27:35;97468.50;;;9.92;83.23
57086;BME280;42964;42.910;23.792;2023-04-30T05:32:34;97444.31;;;9.95;82.31
57086;BME280;42964;42.910;23.792;2023-04-30T05:37:33;97461.44;;;10.36;81.09
57086;BME280;42964;42.910;23.792;2023-04-30T05:42:32;97462.16;;;10.62;80.87
57086;BME280;42964;42.910;23.792;2023-04-30T05:47:31;97458.69;;;10.64;80.70
57086;BME280;42964;42.910;23.792;2023-04-30T05:52:30;97459.44;;;10.82;79.24
57086;BME280;42964;42.910;23.792;2023-04-30T05:57:30;97458.56;;;10.90;79.73
57086;BME280;42964;42.910;23.792;2023-04-30T06:02:29;97453.25;;;11.05;78.59
57086;BME280;42964;42.910;23.792;2023-04-30T06:07:28;97455.53;;;11.40;76.98
57086;BME280;42964;42.910;23.792;2023-04-30T06:12:27;97455.19;;;11.76;76.30
57086;BME280;42964;42.910;23.792;2023-04-30T06:17:26;97461.72;;;12.10;74.18
57086;BME280;42964;42.910;23.792;2023-04-30T06:22:25;97466.47;;;12.50;73.22
57086;BME280;42964;42.910;23.792;2023-04-30T06:27:24;97460.75;;;12.89;72.10
57086;BME280;42964;42.910;23.792;2023-04-30T06:32:26;97459.31;;;13.24;70.59
57086;BME280;42964;42.910;23.792;2023-04-30T06:37:25;97448.69;;;13.36;68.77
57086;BME280;42964;42.910;23.792;2023-04-30T06:42:23;97455.75;;;13.29;67.69
57086;BME280;42964;42.910;23.792;2023-04-30T06:47:22;97443.38;;;13.42;66.44
57086;BME280;42964;42.910;23.792;2023-04-30T06:52:21;97450.31;;;13.43;66.02
57086;BME280;42964;42.910;23.792;2023-04-30T06:57:20;97451.91;;;13.50;66.12
57086;BME280;42964;42.910;23.792;2023-04-30T07:02:19;97466.19;;;13.79;66.54
57086;BME280;42964;42.910;23.792;2023-04-30T07:07:19;97447.50;;;14.04;63.28
57086;BME280;42964;42.910;23.792;2023-04-30T07:12:19;97465.88;;;14.39;62.88
57086;BME280;42964;42.910;23.792;2023-04-30T07:17:19;97472.50;;;14.56;61.43
57086;BME280;42964;42.910;23.792;2023-04-30T07:22:17;97464.28;;;14.76;61.46
57086;BME280;42964;42.910;23.792;2023-04-30T07:27:16;97443.84;;;14.93;60.33
57086;BME280;42964;42.910;23.792;2023-04-30T07:32:15;97458.69;;;14.91;59.46
57086;BME280;42964;42.910;23.792;2023-04-30T07:37:14;97449.31;;;14.82;59.01
57086;BME280;42964;42.910;23.792;2023-04-30T07:42:13;97451.06;;;14.82;59.66
57086;BME280;42964;42.910;23.792;2023-04-30T07:47:12;97453.66;;;14.83;59.61
57086;BME280;42964;42.910;23.792;2023-04-30T07:52:11;97448.97;;;14.98;60.32
57086;BME280;42964;42.910;23.792;2023-04-30T07:57:11;97441.63;;;15.14;61.73
57086;BME280;42964;42.910;23.792;2023-04-30T08:02:10;97444.31;;;15.45;59.45
57086;BME280;42964;42.910;23.792;2023-04-30T08:07:09;97442.91;;;15.66;60.55
57086;BME280;42964;42.910;23.792;2023-04-30T08:12:08;97436.78;;;16.31;60.93
57086;BME280;42964;42.910;23.792;2023-04-30T08:17:07;97439.34;;;16.62;55.14
57086;BME280;42964;42.910;23.792;2023-04-30T08:22:06;97430.34;;;16.71;55.22
57086;BME280;42964;42.910;23.792;2023-04-30T08:27:05;97434.13;;;16.90;55.04
57086;BME280;42964;42.910;23.792;2023-04-30T08:32:04;97411.84;;;17.05;54.55
57086;BME280;42964;42.910;23.792;2023-04-30T08:37:03;97422.25;;;17.60;48.84
57086;BME280;42964;42.910;23.792;2023-04-30T08:42:07;97417.38;;;18.00;47.49
57086;BME280;42964;42.910;23.792;2023-04-30T08:47:07;97396.72;;;18.37;44.17
57086;BME280;42964;42.910;23.792;2023-04-30T08:52:08;97417.28;;;18.95;42.91
57086;BME280;42964;42.910;23.792;2023-04-30T08:57:07;97407.72;;;19.15;41.44
57086;BME280;42964;42.910;23.792;2023-04-30T09:02:07;97399.69;;;19.18;41.24
57086;BME280;42964;42.910;23.792;2023-04-30T09:07:08;97405.94;;;19.58;41.05
57086;BME280;42964;42.910;23.792;2023-04-30T09:12:15;97397.78;;;19.84;40.48
57086;BME280;42964;42.910;23.792;2023-04-30T09:17:20;97394.97;;;19.69;39.38
57086;BME280;42964;42.910;23.792;2023-04-30T09:22:23;97381.81;;;20.08;39.85
57086;BME280;42964;42.910;23.792;2023-04-30T09:27:22;97391.34;;;20.11;38.64
57086;BME280;42964;42.910;23.792;2023-04-30T09:32:21;97382.72;;;20.07;39.24
57086;BME280;42964;42.910;23.792;2023-04-30T09:37:20;97391.41;;;20.09;38.42
57086;BME280;42964;42.910;23.792;2023-04-30T09:42:19;97385.28;;;20.08;38.53
57086;BME280;42964;42.910;23.792;2023-04-30T09:47:19;97377.34;;;20.29;37.22
57086;BME280;42964;42.910;23.792;2023-04-30T09:52:19;97326.19;;;19.95;36.95
57086;BME280;42964;42.910;23.792;2023-04-30T09:57:22;97373.50;;;20.17;38.03
57086;BME280;42964;42.910;23.792;2023-04-30T10:02:21;97267.81;;;19.66;42.09
57086;BME280;42964;42.910;23.792;2023-04-30T10:07:23;97373.13;;;20.25;43.44
57086;BME280;42964;42.910;23.792;2023-04-30T10:17:32;97386.03;;;20.31;50.35
57086;BME280;42964;42.910;23.792;2023-04-30T10:22:33;97365.59;;;20.36;49.89
57086;BME280;42964;42.910;23.792;2023-04-30T10:27:34;97349.94;;;20.88;50.19
57086;BME280;42964;42.910;23.792;2023-04-30T10:32:39;97363.28;;;21.39;48.09
57086;BME280;42964;42.910;23.792;2023-04-30T10:37:46;97357.66;;;21.63;44.44
57086;BME280;42964;42.910;23.792;2023-04-30T10:42:47;97362.88;;;21.97;41.36
57086;BME280;42964;42.910;23.792;2023-04-30T10:47:47;97334.88;;;21.77;39.44
57086;BME280;42964;42.910;23.792;2023-04-30T10:52:46;97339.16;;;20.93;40.28
57086;BME280;42964;42.910;23.792;2023-04-30T10:57:45;97350.34;;;20.24;42.34
57086;BME280;42964;42.910;23.792;2023-04-30T11:02:46;97362.50;;;19.48;42.84
57086;BME280;42964;42.910;23.792;2023-04-30T11:07:55;97356.09;;;19.12;43.81
57086;BME280;42964;42.910;23.792;2023-04-30T11:12:54;97341.53;;;19.66;43.13
57086;BME280;42964;42.910;23.792;2023-04-30T11:17:57;97338.19;;;20.40;39.85
57086;BME280;42964;42.910;23.792;2023-04-30T11:23:07;97345.00;;;20.25;38.36
57086;BME280;42964;42.910;23.792;2023-04-30T11:28:12;97348.94;;;20.36;41.82
57086;BME280;42964;42.910;23.792;2023-04-30T11:33:11;97344.00;;;20.28;39.12
57086;BME280;42964;42.910;23.792;2023-04-30T11:38:11;97353.00;;;20.43;41.98
57086;BME280;42964;42.910;23.792;2023-04-30T11:43:26;97369.06;;;19.99;42.20
57086;BME280;42964;42.910;23.792;2023-04-30T11:48:32;97391.34;;;19.71;46.05
57086;BME280;42964;42.910;23.792;2023-04-30T11:53:31;97382.34;;;19.56;47.89
57086;BME280;42964;42.910;23.792;2023-04-30T11:58:37;97384.44;;;19.69;50.43
57086;BME280;42964;42.910;23.792;2023-04-30T12:03:44;97371.75;;;20.16;50.41
57086;BME280;42964;42.910;23.792;2023-04-30T12:08:43;97360.31;;;20.74;48.13
57086;BME280;42964;42.910;23.792;2023-04-30T12:13:49;97301.44;;;20.91;45.22
57086;BME280;42964;42.910;23.792;2023-04-30T12:18:48;97355.03;;;21.63;42.40
57086;BME280;42964;42.910;23.792;2023-04-30T12:23:47;97345.06;;;21.68;43.16
57086;BME280;42964;42.910;23.792;2023-04-30T12:33:53;97349.75;;;21.96;43.05
57086;BME280;42964;42.910;23.792;2023-04-30T12:39:00;97343.78;;;21.92;43.57
57086;BME280;42964;42.910;23.792;2023-04-30T12:49:32;97332.81;;;21.67;42.17
57086;BME280;42964;42.910;23.792;2023-04-30T12:54:32;97326.94;;;21.62;42.97
57086;BME280;42964;42.910;23.792;2023-04-30T12:59:33;97338.09;;;21.67;43.10
57086;BME280;42964;42.910;23.792;2023-04-30T13:04:34;97340.13;;;21.62;44.51
57086;BME280;42964;42.910;23.792;2023-04-30T13:09:35;97338.56;;;21.58;43.96
57086;BME280;42964;42.910;23.792;2023-04-30T13:14:34;97331.69;;;21.38;42.70
57086;BME280;42964;42.910;23.792;2023-04-30T13:19:34;97340.44;;;21.38;41.74
57086;BME280;42964;42.910;23.792;2023-04-30T13:24:33;97330.53;;;21.43;39.57
57086;BME280;42964;42.910;23.792;2023-04-30T13:29:32;97334.69;;;21.12;38.87
57086;BME280;42964;42.910;23.792;2023-04-30T13:34:31;97318.59;;;21.00;40.32
57086;BME280;42964;42.910;23.792;2023-04-30T13:39:30;97298.59;;;20.96;40.12
57086;BME280;42964;42.910;23.792;2023-04-30T13:44:29;97305.50;;;21.16;38.77
57086;BME280;42964;42.910;23.792;2023-04-30T13:49:30;97300.53;;;21.09;38.40
57086;BME280;42964;42.910;23.792;2023-04-30T13:54:29;97311.38;;;21.22;38.30
57086;BME280;42964;42.910;23.792;2023-04-30T13:59:28;97316.69;;;21.03;35.22
57086;BME280;42964;42.910;23.792;2023-04-30T14:04:27;97313.72;;;21.09;37.93
57086;BME280;42964;42.910;23.792;2023-04-30T14:09:26;97296.97;;;21.45;38.93
57086;BME280;42964;42.910;23.792;2023-04-30T14:14:25;97288.06;;;21.64;36.49
57086;BME280;42964;42.910;23.792;2023-04-30T14:19:25;97302.41;;;21.42;36.07
57086;BME280;42964;42.910;23.792;2023-04-30T14:24:24;97302.25;;;21.45;37.25
57086;BME280;42964;42.910;23.792;2023-04-30T14:29:23;97303.47;;;20.86;37.29
57086;BME280;42964;42.910;23.792;2023-04-30T14:34:22;97295.72;;;21.00;37.96
57086;BME280;42964;42.910;23.792;2023-04-30T14:39:22;97286.59;;;21.25;38.39
57086;BME280;42964;42.910;23.792;2023-04-30T14:44:21;97289.78;;;21.65;37.86
57086;BME280;42964;42.910;23.792;2023-04-30T14:49:21;97293.63;;;21.75;36.94
57086;BME280;42964;42.910;23.792;2023-04-30T14:54:20;97284.41;;;21.50;36.43
57086;BME280;42964;42.910;23.792;2023-04-30T14:59:19;97172.06;;;20.77;36.40
57086;BME280;42964;42.910;23.792;2023-04-30T15:04:18;97281.75;;;21.50;36.85
57086;BME280;42964;42.910;23.792;2023-04-30T15:09:17;97290.88;;;21.61;36.37
57086;BME280;42964;42.910;23.792;2023-04-30T15:14:16;97292.00;;;21.72;37.62
57086;BME280;42964;42.910;23.792;2023-04-30T15:19:16;97296.38;;;21.73;38.69
57086;BME280;42964;42.910;23.792;2023-04-30T15:24:15;97293.81;;;21.72;37.62
57086;BME280;42964;42.910;23.792;2023-04-30T15:29:15;97298.56;;;21.65;37.76
57086;BME280;42964;42.910;23.792;2023-04-30T15:34:14;97244.38;;;21.25;37.57
57086;BME280;42964;42.910;23.792;2023-04-30T15:39:13;97304.44;;;21.37;38.22
57086;BME280;42964;42.910;23.792;2023-04-30T15:44:12;97290.25;;;21.22;39.82
57086;BME280;42964;42.910;23.792;2023-04-30T15:49:11;97296.22;;;21.26;40.56
57086;BME280;42964;42.910;23.792;2023-04-30T15:54:10;97302.88;;;21.33;40.53
57086;BME280;42964;42.910;23.792;2023-04-30T15:59:11;97298.06;;;21.24;40.14
57086;BME280;42964;42.910;23.792;2023-04-30T16:04:13;97299.28;;;20.99;39.62
57086;BME280;42964;42.910;23.792;2023-04-30T16:09:12;97289.81;;;20.78;41.27
57086;BME280;42964;42.910;23.792;2023-04-30T16:14:17;97289.00;;;20.58;41.58
57086;BME280;42964;42.910;23.792;2023-04-30T16:19:16;97302.19;;;20.39;41.74
57086;BME280;42964;42.910;23.792;2023-04-30T16:24:15;97301.22;;;20.04;43.18
57086;BME280;42964;42.910;23.792;2023-04-30T16:29:14;97299.00;;;19.76;43.53
57086;BME280;42964;42.910;23.792;2023-04-30T16:34:13;97309.50;;;19.57;44.40
57086;BME280;42964;42.910;23.792;2023-04-30T16:39:12;97307.91;;;19.32;46.82
57086;BME280;42964;42.910;23.792;2023-04-30T16:44:12;97325.78;;;19.03;50.32
57086;BME280;42964;42.910;23.792;2023-04-30T16:49:11;97314.19;;;18.65;51.74
57086;BME280;42964;42.910;23.792;2023-04-30T16:54:09;97331.53;;;18.47;51.20
57086;BME280;42964;42.910;23.792;2023-04-30T16:59:09;97340.03;;;18.32;51.26
57086;BME280;42964;42.910;23.792;2023-04-30T17:04:08;97332.94;;;18.10;50.64
57086;BME280;42964;42.910;23.792;2023-04-30T17:09:07;97348.94;;;17.81;50.63
57086;BME280;42964;42.910;23.792;2023-04-30T17:14:06;97317.78;;;17.21;53.49
57086;BME280;42964;42.910;23.792;2023-04-30T17:19:05;97317.25;;;17.11;56.02
57086;BME280;42964;42.910;23.792;2023-04-30T17:24:05;97369.63;;;17.13;56.89
57086;BME280;42964;42.910;23.792;2023-04-30T17:29:04;97374.97;;;16.83;55.49
57086;BME280;42964;42.910;23.792;2023-04-30T17:34:03;97376.03;;;16.76;56.11
57086;BME280;42964;42.910;23.792;2023-04-30T17:39:02;97377.91;;;16.44;57.87
57086;BME280;42964;42.910;23.792;2023-04-30T17:44:03;97383.44;;;16.35;57.83
57086;BME280;42964;42.910;23.792;2023-04-30T17:49:02;97384.78;;;16.19;57.17
57086;BME280;42964;42.910;23.792;2023-04-30T17:54:01;97401.50;;;16.13;57.41
57086;BME280;42964;42.910;23.792;2023-04-30T17:59:01;97349.19;;;15.51;59.39
57086;BME280;42964;42.910;23.792;2023-04-30T18:04:00;97401.84;;;15.70;60.47
57086;BME280;42964;42.910;23.792;2023-04-30T18:08:59;97424.31;;;15.77;58.70
57086;BME280;42964;42.910;23.792;2023-04-30T18:13:59;97426.94;;;15.44;64.67
57086;BME280;42964;42.910;23.792;2023-04-30T18:18:58;97427.94;;;15.38;63.75
57086;BME280;42964;42.910;23.792;2023-04-30T18:23:57;97412.31;;;15.37;63.22
57086;BME280;42964;42.910;23.792;2023-04-30T18:28:56;97438.16;;;15.48;62.72
57086;BME280;42964;42.910;23.792;2023-04-30T18:33:55;97446.41;;;15.32;68.77
57086;BME280;42964;42.910;23.792;2023-04-30T18:38:54;97452.03;;;15.15;69.93
57086;BME280;42964;42.910;23.792;2023-04-30T18:43:53;97467.47;;;14.87;70.35
57086;BME280;42964;42.910;23.792;2023-04-30T18:48:52;97454.78;;;14.72;71.94
57086;BME280;42964;42.910;23.792;2023-04-30T18:53:51;97467.94;;;14.66;71.01
57086;BME280;42964;42.910;23.792;2023-04-30T18:58:50;97482.94;;;14.56;71.00
57086;BME280;42964;42.910;23.792;2023-04-30T19:03:49;97471.97;;;14.40;72.61
57086;BME280;42964;42.910;23.792;2023-04-30T19:08:48;97473.06;;;14.28;73.72
57086;BME280;42964;42.910;23.792;2023-04-30T19:13:47;97490.75;;;14.14;73.94
57086;BME280;42964;42.910;23.792;2023-04-30T19:18:46;97492.59;;;14.10;73.17
57086;BME280;42964;42.910;23.792;2023-04-30T19:23:44;97499.72;;;14.01;74.44
57086;BME280;42964;42.910;23.792;2023-04-30T19:28:43;97507.09;;;13.77;76.88
57086;BME280;42964;42.910;23.792;2023-04-30T19:33:42;97500.56;;;13.54;77.23
57086;BME280;42964;42.910;23.792;2023-04-30T19:38:41;97486.59;;;13.57;76.81
57086;BME280;42964;42.910;23.792;2023-04-30T19:43:40;97501.44;;;13.50;77.11
57086;BME280;42964;42.910;23.792;2023-04-30T19:48:39;97542.00;;;13.11;79.54
57086;BME280;42964;42.910;23.792;2023-04-30T19:53:38;97589.06;;;12.27;81.86
57086;BME280;42964;42.910;23.792;2023-04-30T19:58:37;97582.03;;;12.36;81.00
57086;BME280;42964;42.910;23.792;2023-04-30T20:03:35;97608.94;;;12.35;82.82
57086;BME280;42964;42.910;23.792;2023-04-30T20:08:34;97610.81;;;12.16;84.08
57086;BME280;42964;42.910;23.792;2023-04-30T20:13:34;97608.28;;;12.08;85.77
57086;BME280;42964;42.910;23.792;2023-04-30T20:18:33;97607.50;;;11.98;88.89
57086;BME280;42964;42.910;23.792;2023-04-30T20:23:31;97587.56;;;12.00;90.10
57086;BME280;42964;42.910;23.792;2023-04-30T20:28:30;97595.31;;;12.05;90.15
57086;BME280;42964;42.910;23.792;2023-04-30T20:33:29;97595.28;;;12.11;91.43
57086;BME280;42964;42.910;23.792;2023-04-30T20:38:28;97597.88;;;12.11;92.12
57086;BME280;42964;42.910;23.792;2023-04-30T20:43:27;97612.53;;;12.18;92.69
57086;BME280;42964;42.910;23.792;2023-04-30T20:48:26;97607.25;;;12.30;92.13
57086;BME280;42964;42.910;23.792;2023-04-30T20:53:25;97623.66;;;12.36;91.94
57086;BME280;42964;42.910;23.792;2023-04-30T20:58:23;97611.44;;;12.44;92.01
57086;BME280;42964;42.910;23.792;2023-04-30T21:03:22;97613.09;;;12.51;92.01
57086;BME280;42964;42.910;23.792;2023-04-30T21:08:21;97608.75;;;12.51;91.75
57086;BME280;42964;42.910;23.792;2023-04-30T21:13:20;97545.72;;;12.23;92.48
57086;BME280;42964;42.910;23.792;2023-04-30T21:18:19;97613.13;;;12.48;93.01
57086;BME280;42964;42.910;23.792;2023-04-30T21:23:18;97602.00;;;12.32;92.66
57086;BME280;42964;42.910;23.792;2023-04-30T21:28:17;97605.56;;;12.20;92.49
57086;BME280;42964;42.910;23.792;2023-04-30T21:33:16;97610.84;;;12.13;91.87
57086;BME280;42964;42.910;23.792;2023-04-30T21:38:15;97610.75;;;12.20;91.00
57086;BME280;42964;42.910;23.792;2023-04-30T21:43:14;97611.59;;;12.24;90.57
57086;BME280;42964;42.910;23.792;2023-04-30T21:48:15;97616.00;;;12.16;89.72
57086;BME280;42964;42.910;23.792;2023-04-30T21:53:15;97572.97;;;11.85;89.61
57086;BME280;42964;42.910;23.792;2023-04-30T21:58:14;97563.53;;;11.74;89.34
57086;BME280;42964;42.910;23.792;2023-04-30T22:03:12;97633.63;;;11.83;90.67
57086;BME280;42964;42.910;23.792;2023-04-30T22:08:13;97638.81;;;11.84;91.33
57086;BME280;42964;42.910;23.792;2023-04-30T22:13:12;97606.06;;;11.65;91.12
57086;BME280;42964;42.910;23.792;2023-04-30T22:18:11;97483.72;;;10.72;91.01
57086;BME280;42964;42.910;23.792;2023-04-30T22:23:10;97642.59;;;11.40;92.32
57086;BME280;42964;42.910;23.792;2023-04-30T22:28:10;97586.56;;;10.99;92.44
57086;BME280;42964;42.910;23.792;2023-04-30T22:33:09;97634.03;;;11.29;91.97
57086;BME280;42964;42.910;23.792;2023-04-30T22:38:08;97638.38;;;11.24;91.04
57086;BME280;42964;42.910;23.792;2023-04-30T22:43:08;97636.69;;;11.20;90.53
57086;BME280;42964;42.910;23.792;2023-04-30T22:48:07;97634.97;;;11.16;91.17
57086;BME280;42964;42.910;23.792;2023-04-30T22:53:07;97629.78;;;11.10;91.33
57086;BME280;42964;42.910;23.792;2023-04-30T22:58:06;97639.34;;;11.00;92.01
57086;BME280;42964;42.910;23.792;2023-04-30T23:03:05;97638.53;;;10.96;91.78
57086;BME280;42964;42.910;23.792;2023-04-30T23:08:04;97632.50;;;10.90;91.88
57086;BME280;42964;42.910;23.792;2023-04-30T23:13:03;97635.97;;;10.78;92.59
57086;BME280;42964;42.910;23.792;2023-04-30T23:18:02;97627.38;;;10.62;92.41
57086;BME280;42964;42.910;23.792;2023-04-30T23:23:02;97636.88;;;10.61;93.25
57086;BME280;42964;42.910;23.792;2023-04-30T23:28:01;97639.47;;;10.54;92.57
57086;BME280;42964;42.910;23.792;2023-04-30T23:33:01;97640.38;;;10.48;92.83
57086;BME280;42964;42.910;23.792;2023-04-30T23:38:01;97642.97;;;10.44;93.07
57086;BME280;42964;42.910;23.792;2023-04-30T23:43:00;97641.28;;;10.23;94.00
57086;BME280;42964;42.910;23.792;2023-04-30T23:47:59;97637.00;;;10.17;94.34
57086;BME280;42964;42.910;23.792;2023-04-30T23:52:58;97643.88;;;10.12;94.26
57086;BME280;42964;42.910;23.792;2023-04-30T23:57:57;97649.09;;;10.10;94.06
